Time;durP1;ratioP1;P1;durP2;ratioP2;P2;SDS_P1;SDS_P2;PMS_P1;PMS_P2;Temp;Humidity;BMP_temperature;BMP_pressure;BME280_temperature;BME280_humidity;BME280_pressure;Samples;Min_cycle;Max_cycle;Signal;HPM_P1;HPM_P2
2022/10/09 00:03:49;;;;;;;;;;;9.50;99.90;;;;;;12411091;28;19925;-80
2022/10/09 00:09:51;;;;;;;;;;;9.50;99.90;;;;;;12419409;28;19926;-80
2022/10/09 00:15:52;;;;;;;;;;;9.50;99.90;;;;;;12440924;28;19925;-80
2022/10/09 00:21:54;;;;;;;;;;;9.60;99.90;;;;;;12427861;28;19933;-80
2022/10/09 00:27:56;;;;;;;;;;;9.90;99.90;;;;;;12412545;28;19962;-81
2022/10/09 00:33:58;;;;;;;;;;;10.10;99.90;;;;;;12413122;28;19937;-80
2022/10/09 00:39:59;;;;;;;;;;;9.90;99.90;;;;;;12427971;28;19933;-80
2022/10/09 00:46:01;;;;;;;;;;;9.90;99.90;;;;;;12385577;28;19926;-80
2022/10/09 00:52:05;;;;;;;;;;;9.60;99.90;;;;;;12383044;28;19933;-80
2022/10/09 00:58:07;;;;;;;;;;;9.60;99.90;;;;;;12396208;28;19930;-81
2022/10/09 01:04:08;;;;;;;;;;;9.60;99.90;;;;;;12410465;28;20305;-81
2022/10/09 01:10:29;;;;;;;;;;;9.50;99.90;;;;;;12416199;28;19925;-81
2022/10/09 01:16:42;;;;;;;;;;;9.30;99.90;;;;;;12433001;28;19933;-81
2022/10/09 01:22:43;;;;;;;;;;;9.30;99.90;;;;;;12421154;28;19929;-80
2022/10/09 01:28:48;;;;;;;;;;;9.20;99.90;;;;;;12418074;28;19925;-80
2022/10/09 01:34:50;;;;;;;;;;;8.90;99.90;;;;;;12429271;28;19933;-80
2022/10/09 01:40:52;;;;;;;;;;;9.00;99.90;;;;;;12427580;28;19933;-80
2022/10/09 01:46:54;;;;;;;;;;;9.00;99.90;;;;;;12424177;28;19932;-79
2022/10/09 01:53:06;;;;;;;;;;;9.00;99.90;;;;;;12413084;28;19937;-80
2022/10/09 01:59:11;;;;;;;;;;;8.70;99.90;;;;;;12420706;28;19930;-80
2022/10/09 02:05:18;;;;;;;;;;;8.70;99.90;;;;;;12415860;28;19929;-80
2022/10/09 02:11:20;;;;;;;;;;;9.00;99.90;;;;;;12414118;28;19926;-80
2022/10/09 02:17:26;;;;;;;;;;;9.20;99.90;;;;;;12414392;28;19975;-80
2022/10/09 02:23:27;;;;;;;;;;;9.30;99.90;;;;;;12418782;28;19937;-80
2022/10/09 02:29:29;;;;;;;;;;;9.20;99.90;;;;;;12418636;28;19926;-80
2022/10/09 02:35:31;;;;;;;;;;;8.80;99.90;;;;;;12422911;28;20401;-80
2022/10/09 02:41:33;;;;;;;;;;;9.00;99.90;;;;;;12419094;28;19930;-80
2022/10/09 02:47:34;;;;;;;;;;;8.90;99.90;;;;;;12396323;28;19925;-80
2022/10/09 02:53:36;;;;;;;;;;;8.90;99.90;;;;;;12425640;28;20739;-80
2022/10/09 02:59:38;;;;;;;;;;;8.80;99.90;;;;;;12419680;28;19926;-80
2022/10/09 03:05:39;;;;;;;;;;;8.80;99.90;;;;;;12418975;28;20477;-80
2022/10/09 03:11:41;;;;;;;;;;;8.80;99.90;;;;;;12423710;28;19925;-80
2022/10/09 03:17:43;;;;;;;;;;;8.80;99.90;;;;;;12402430;28;19929;-80
2022/10/09 03:23:44;;;;;;;;;;;8.80;99.90;;;;;;12427327;28;19930;-80
2022/10/09 03:29:46;;;;;;;;;;;8.80;99.90;;;;;;12421959;28;20052;-80
2022/10/09 03:35:48;;;;;;;;;;;8.80;99.90;;;;;;12426146;28;19926;-80
2022/10/09 03:41:50;;;;;;;;;;;8.70;99.90;;;;;;12425941;28;19933;-81
2022/10/09 03:47:51;;;;;;;;;;;8.60;99.90;;;;;;12406653;28;19926;-80
2022/10/09 03:53:53;;;;;;;;;;;8.60;99.90;;;;;;12404822;28;19926;-80
2022/10/09 03:59:55;;;;;;;;;;;8.40;99.90;;;;;;12402289;28;19925;-80
2022/10/09 04:05:56;;;;;;;;;;;8.30;99.90;;;;;;12420824;28;20390;-80
2022/10/09 04:11:58;;;;;;;;;;;8.10;99.90;;;;;;12416157;28;19925;-82
2022/10/09 04:18:00;;;;;;;;;;;7.80;99.90;;;;;;12399345;28;19933;-80
2022/10/09 04:24:02;;;;;;;;;;;7.80;99.90;;;;;;12417136;28;19925;-80
2022/10/09 04:30:04;;;;;;;;;;;8.10;99.90;;;;;;12392127;28;19932;-80
2022/10/09 04:36:06;;;;;;;;;;;7.90;99.90;;;;;;12425659;28;19932;-81
2022/10/09 04:42:07;;;;;;;;;;;7.60;99.90;;;;;;12406237;28;19929;-81
2022/10/09 04:48:09;;;;;;;;;;;7.60;99.90;;;;;;12426716;28;19925;-80
2022/10/09 04:54:11;;;;;;;;;;;7.70;99.90;;;;;;12419158;28;20279;-80
2022/10/09 05:00:13;;;;;;;;;;;7.70;99.90;;;;;;12413368;28;19932;-80
2022/10/09 05:06:15;;;;;;;;;;;7.60;99.90;;;;;;12406689;28;19925;-80
2022/10/09 05:12:16;;;;;;;;;;;7.50;99.90;;;;;;12403646;28;19929;-80
2022/10/09 05:18:18;;;;;;;;;;;7.50;99.90;;;;;;12404018;28;20354;-81
2022/10/09 05:24:20;;;;;;;;;;;7.40;99.90;;;;;;12400796;28;19933;-80
2022/10/09 05:30:21;;;;;;;;;;;7.50;99.90;;;;;;12404721;28;19932;-80
2022/10/09 05:36:23;;;;;;;;;;;7.50;99.90;;;;;;12423482;28;19937;-80
2022/10/09 05:42:25;;;;;;;;;;;7.30;99.90;;;;;;12414970;28;19930;-80
2022/10/09 05:48:26;;;;;;;;;;;7.30;99.90;;;;;;12415592;28;19931;-81
2022/10/09 05:54:28;;;;;;;;;;;7.40;99.90;;;;;;12425970;28;19929;-80
2022/10/09 06:00:30;;;;;;;;;;;7.20;99.90;;;;;;12418382;28;19944;-81
2022/10/09 06:06:34;;;;;;;;;;;7.10;99.90;;;;;;12417064;28;19930;-81
2022/10/09 06:12:36;;;;;;;;;;;7.20;99.90;;;;;;12417190;28;19933;-80
2022/10/09 06:18:38;;;;;;;;;;;7.10;99.90;;;;;;12409985;28;19936;-80
2022/10/09 06:24:40;;;;;;;;;;;7.10;99.90;;;;;;12383800;28;20003;-80
2022/10/09 06:30:41;;;;;;;;;;;7.30;99.90;;;;;;12390919;28;19926;-80
2022/10/09 06:36:43;;;;;;;;;;;7.40;99.90;;;;;;12427294;28;19926;-80
2022/10/09 06:42:45;;;;;;;;;;;7.40;99.90;;;;;;12406131;28;19940;-80
2022/10/09 06:48:47;;;;;;;;;;;7.40;99.90;;;;;;12440740;28;19933;-81
2022/10/09 06:54:49;;;;;;;;;;;7.30;99.90;;;;;;12413633;28;19929;-81
2022/10/09 07:01:00;;;;;;;;;;;7.40;99.90;;;;;;12411520;28;19926;-80
2022/10/09 07:07:02;;;;;;;;;;;7.30;99.90;;;;;;12419889;28;20397;-81
2022/10/09 07:13:03;;;;;;;;;;;7.30;99.90;;;;;;12409786;28;20295;-80
2022/10/09 07:19:07;;;;;;;;;;;7.50;99.90;;;;;;12424575;28;20032;-81
2022/10/09 07:25:10;;;;;;;;;;;7.60;99.90;;;;;;12412041;28;19929;-80
2022/10/09 07:31:12;;;;;;;;;;;7.60;99.90;;;;;;12409414;28;19925;-80
2022/10/09 07:37:14;;;;;;;;;;;7.60;99.90;;;;;;12428050;28;20424;-81
2022/10/09 07:43:16;;;;;;;;;;;7.60;99.90;;;;;;12422768;28;19926;-81
2022/10/09 07:49:18;;;;;;;;;;;7.70;99.90;;;;;;12419022;28;19936;-80
2022/10/09 07:55:19;;;;;;;;;;;7.80;99.90;;;;;;12414500;28;19937;-81
2022/10/09 08:01:21;;;;;;;;;;;7.90;99.90;;;;;;12421816;28;19949;-80
2022/10/09 08:07:23;;;;;;;;;;;8.00;99.90;;;;;;12404977;28;20016;-80
2022/10/09 08:13:24;;;;;;;;;;;8.10;99.90;;;;;;12420882;28;20953;-80
2022/10/09 08:19:26;;;;;;;;;;;8.30;99.90;;;;;;12394947;28;19944;-80
2022/10/09 08:25:28;;;;;;;;;;;8.60;99.90;;;;;;12421160;28;19956;-80
2022/10/09 08:31:30;;;;;;;;;;;8.80;99.90;;;;;;12407966;28;19925;-81
2022/10/09 08:37:32;;;;;;;;;;;8.90;99.90;;;;;;12420763;28;19975;-81
2022/10/09 08:43:36;;;;;;;;;;;9.20;99.90;;;;;;12406971;28;19937;-82
2022/10/09 08:49:47;;;;;;;;;;;9.70;99.90;;;;;;12421499;28;19929;-81
2022/10/09 08:55:52;;;;;;;;;;;10.00;99.90;;;;;;12413249;28;20382;-81
2022/10/09 09:01:53;;;;;;;;;;;10.10;99.90;;;;;;12416578;28;19929;-80
2022/10/09 09:08:25;;;;;;;;;;;10.40;99.90;;;;;;12419959;28;20004;-80
2022/10/09 09:14:45;;;;;;;;;;;10.70;99.90;;;;;;12371833;28;19929;-80
2022/10/09 09:20:49;;;;;;;;;;;10.90;99.90;;;;;;12419811;28;19933;-81
2022/10/09 09:26:53;;;;;;;;;;;11.60;99.90;;;;;;12426617;28;19932;-81
2022/10/09 09:33:08;;;;;;;;;;;12.20;99.90;;;;;;12432060;28;19933;-80
2022/10/09 09:39:10;;;;;;;;;;;12.60;99.90;;;;;;12406524;28;19925;-81
2022/10/09 09:45:32;;;;;;;;;;;12.90;99.90;;;;;;12427093;28;19930;-81
2022/10/09 09:51:34;;;;;;;;;;;13.10;99.90;;;;;;12410524;28;19925;-80
2022/10/09 09:57:41;;;;;;;;;;;13.20;99.90;;;;;;12407652;28;19925;-81
2022/10/09 10:03:46;;;;;;;;;;;13.30;99.90;;;;;;12411962;28;19926;-80
2022/10/09 10:09:59;;;;;;;;;;;13.60;99.90;;;;;;12393615;28;19930;-81
2022/10/09 10:16:01;;;;;;;;;;;13.90;99.90;;;;;;12418185;28;19925;-80
2022/10/09 10:22:20;;;;;;;;;;;14.10;99.90;;;;;;12414636;28;19933;-81
2022/10/09 10:28:25;;;;;;;;;;;14.30;99.90;;;;;;12395010;28;20275;-81
2022/10/09 10:34:34;;;;;;;;;;;14.50;99.90;;;;;;12416604;28;19971;-81
2022/10/09 10:40:45;;;;;;;;;;;14.70;99.90;;;;;;12405962;28;19933;-82
2022/10/09 10:46:51;;;;;;;;;;;14.80;99.90;;;;;;12427006;28;19933;-81
2022/10/09 10:53:00;;;;;;;;;;;14.90;99.90;;;;;;12406827;28;19934;-80
2022/10/09 10:59:20;;;;;;;;;;;14.90;99.90;;;;;;12412561;28;19929;-80
2022/10/09 11:05:23;;;;;;;;;;;14.90;99.90;;;;;;12425344;28;19925;-80
2022/10/09 11:11:37;;;;;;;;;;;15.40;99.90;;;;;;12415613;28;19925;-80
2022/10/09 11:17:48;;;;;;;;;;;15.50;99.90;;;;;;12406763;28;19925;-80
2022/10/09 11:23:59;;;;;;;;;;;15.60;99.90;;;;;;12410889;28;19933;-80
2022/10/09 11:30:03;;;;;;;;;;;15.50;99.90;;;;;;12425395;28;19933;-80
2022/10/09 11:36:17;;;;;;;;;;;15.70;99.90;;;;;;12416397;28;19930;-81
2022/10/09 11:42:20;;;;;;;;;;;15.70;99.90;;;;;;12400263;28;20727;-80
2022/10/09 11:48:24;;;;;;;;;;;16.10;99.90;;;;;;12427401;28;20274;-80
2022/10/09 11:54:27;;;;;;;;;;;16.30;99.90;;;;;;12362942;28;19942;-80
2022/10/09 12:00:34;;;;;;;;;;;16.30;99.90;;;;;;12369784;28;20159;-81
2022/10/09 12:06:49;;;;;;;;;;;16.50;99.90;;;;;;12380833;28;19930;-81
2022/10/09 12:12:57;;;;;;;;;;;16.60;99.90;;;;;;12379259;28;20772;-80
2022/10/09 12:19:00;;;;;;;;;;;16.70;99.90;;;;;;12370519;28;19934;-81
2022/10/09 12:25:07;;;;;;;;;;;17.00;99.90;;;;;;12392265;28;20292;-80
2022/10/09 12:31:24;;;;;;;;;;;16.90;99.90;;;;;;12417559;28;20372;-80
2022/10/09 12:37:33;;;;;;;;;;;16.70;99.90;;;;;;12393581;28;19925;-81
2022/10/09 12:43:35;;;;;;;;;;;16.70;99.90;;;;;;12423701;28;19930;-80
2022/10/09 12:49:37;;;;;;;;;;;16.80;99.90;;;;;;12408772;28;19930;-80
2022/10/09 12:55:47;;;;;;;;;;;16.90;99.90;;;;;;12441192;28;19933;-81
2022/10/09 13:01:51;;;;;;;;;;;16.80;99.90;;;;;;12482177;28;19977;-81
2022/10/09 13:07:53;;;;;;;;;;;16.70;99.90;;;;;;12453821;28;19918;-83
2022/10/09 13:13:54;;;;;;;;;;;16.70;99.90;;;;;;12457612;28;20346;-82
2022/10/09 13:19:58;;;;;;;;;;;16.70;99.90;;;;;;12472685;28;19924;-81
2022/10/09 13:26:01;;;;;;;;;;;16.60;99.90;;;;;;12420651;28;19933;-80
2022/10/09 13:32:04;;;;;;;;;;;16.70;99.90;;;;;;12416357;28;19933;-81
2022/10/09 13:38:06;;;;;;;;;;;16.70;99.90;;;;;;12409933;28;19925;-81
2022/10/09 13:44:08;;;;;;;;;;;16.20;99.90;;;;;;12407613;28;20390;-81
2022/10/09 13:50:12;;;;;;;;;;;16.10;99.90;;;;;;12426563;28;19929;-80
2022/10/09 13:56:14;;;;;;;;;;;16.00;99.90;;;;;;12416868;28;19936;-80
2022/10/09 14:02:15;;;;;;;;;;;16.00;99.90;;;;;;12413007;28;19933;-80
2022/10/09 14:08:17;;;;;;;;;;;15.90;99.90;;;;;;12417684;28;19926;-81
2022/10/09 14:14:21;;;;;;;;;;;15.70;99.90;;;;;;12406793;28;19929;-81
2022/10/09 14:20:24;;;;;;;;;;;15.50;99.90;;;;;;12417371;28;19992;-80
2022/10/09 14:26:26;;;;;;;;;;;15.50;99.90;;;;;;12419213;28;19926;-81
2022/10/09 14:32:27;;;;;;;;;;;15.40;99.90;;;;;;12423818;28;19926;-80
2022/10/09 14:38:29;;;;;;;;;;;15.30;99.90;;;;;;12428285;28;19930;-80
2022/10/09 14:44:31;;;;;;;;;;;15.20;99.90;;;;;;12419800;28;19930;-80
2022/10/09 14:50:33;;;;;;;;;;;15.20;99.90;;;;;;12417974;28;19926;-81
2022/10/09 14:56:35;;;;;;;;;;;15.10;99.90;;;;;;12414490;28;19933;-80
2022/10/09 15:02:37;;;;;;;;;;;15.10;99.90;;;;;;12433776;28;19936;-81
2022/10/09 15:08:40;;;;;;;;;;;15.10;99.90;;;;;;12422626;28;19938;-81
2022/10/09 15:14:42;;;;;;;;;;;15.10;99.90;;;;;;12417716;28;19933;-81
2022/10/09 15:20:44;;;;;;;;;;;15.10;99.90;;;;;;12413737;28;20698;-81
2022/10/09 15:26:46;;;;;;;;;;;15.00;99.90;;;;;;12417645;28;19933;-80
2022/10/09 15:32:47;;;;;;;;;;;15.10;99.90;;;;;;12418280;28;19926;-80
2022/10/09 15:38:49;;;;;;;;;;;15.00;99.90;;;;;;12409289;28;20016;-80
2022/10/09 15:44:51;;;;;;;;;;;14.90;99.90;;;;;;12418332;28;20404;-81
2022/10/09 15:50:52;;;;;;;;;;;14.70;99.90;;;;;;12415912;28;19933;-81
2022/10/09 15:56:54;;;;;;;;;;;14.60;99.90;;;;;;12412963;28;19925;-81
2022/10/09 16:02:56;;;;;;;;;;;14.50;99.90;;;;;;12413549;28;20285;-80
2022/10/09 16:08:57;;;;;;;;;;;14.30;99.90;;;;;;12421533;28;19947;-81
2022/10/09 16:14:59;;;;;;;;;;;14.20;99.90;;;;;;12408590;28;19933;-81
2022/10/09 16:21:05;;;;;;;;;;;14.10;99.90;;;;;;12408997;28;19933;-81
2022/10/09 16:27:07;;;;;;;;;;;13.90;99.90;;;;;;12405864;28;20381;-81
2022/10/09 16:33:09;;;;;;;;;;;13.70;99.90;;;;;;12426011;28;20309;-81
2022/10/09 16:39:13;;;;;;;;;;;13.50;99.90;;;;;;12407155;28;19932;-81
2022/10/09 16:45:15;;;;;;;;;;;13.40;99.90;;;;;;12419612;28;19933;-81
2022/10/09 16:51:18;;;;;;;;;;;13.20;99.90;;;;;;12415795;28;19926;-81
2022/10/09 16:57:19;;;;;;;;;;;13.10;99.90;;;;;;12411512;28;19945;-80
2022/10/09 17:03:21;;;;;;;;;;;12.90;99.90;;;;;;12415035;28;20373;-81
2022/10/09 17:09:23;;;;;;;;;;;13.00;99.90;;;;;;12415691;28;19933;-80
2022/10/09 17:15:24;;;;;;;;;;;12.80;99.90;;;;;;12412781;28;19926;-80
2022/10/09 17:21:26;;;;;;;;;;;12.70;99.90;;;;;;12418456;28;19930;-80
2022/10/09 17:27:34;;;;;;;;;;;12.80;99.90;;;;;;12415592;28;19929;-80
2022/10/09 17:33:40;;;;;;;;;;;12.70;99.90;;;;;;12421456;28;19941;-80
2022/10/09 17:39:41;;;;;;;;;;;12.60;99.90;;;;;;12416977;28;19929;-81
2022/10/09 17:45:48;;;;;;;;;;;12.20;99.90;;;;;;12425080;28;20071;-80
2022/10/09 17:51:51;;;;;;;;;;;11.90;99.90;;;;;;12428012;28;19929;-81
2022/10/09 17:57:54;;;;;;;;;;;11.40;99.90;;;;;;12403996;28;20151;-80
2022/10/09 18:03:56;;;;;;;;;;;11.30;99.90;;;;;;12397216;28;20301;-80
2022/10/09 18:09:57;;;;;;;;;;;11.40;99.90;;;;;;12425479;28;19929;-80
2022/10/09 18:16:03;;;;;;;;;;;11.40;99.90;;;;;;12415193;28;19930;-81
2022/10/09 18:22:04;;;;;;;;;;;11.40;99.90;;;;;;12408266;28;20370;-80
2022/10/09 18:28:06;;;;;;;;;;;11.30;99.90;;;;;;12416437;28;19926;-80
2022/10/09 18:34:08;;;;;;;;;;;11.30;99.90;;;;;;12409964;28;19930;-80
2022/10/09 18:40:10;;;;;;;;;;;11.40;99.90;;;;;;12421177;28;19953;-80
2022/10/09 18:46:12;;;;;;;;;;;11.40;99.90;;;;;;12437205;28;20012;-80
2022/10/09 18:52:14;;;;;;;;;;;11.30;99.90;;;;;;12411040;28;19968;-81
2022/10/09 18:58:16;;;;;;;;;;;11.20;99.90;;;;;;12419395;28;19925;-81
2022/10/09 19:04:18;;;;;;;;;;;11.30;99.90;;;;;;12424687;28;19926;-80
2022/10/09 19:10:22;;;;;;;;;;;11.20;99.90;;;;;;12406327;28;19933;-81
2022/10/09 19:16:23;;;;;;;;;;;11.20;99.90;;;;;;12407036;28;19929;-79
2022/10/09 19:22:26;;;;;;;;;;;11.20;99.90;;;;;;12407332;28;19926;-80
2022/10/09 19:28:31;;;;;;;;;;;11.20;99.90;;;;;;12415336;28;19926;-80
2022/10/09 19:34:33;;;;;;;;;;;11.20;99.90;;;;;;12423506;28;19926;-81
2022/10/09 19:40:35;;;;;;;;;;;11.20;99.90;;;;;;12412889;28;19933;-80
2022/10/09 19:46:38;;;;;;;;;;;11.20;99.90;;;;;;12409617;28;19926;-80
2022/10/09 19:52:39;;;;;;;;;;;11.30;99.90;;;;;;12397895;28;19941;-80
2022/10/09 19:58:42;;;;;;;;;;;11.30;99.90;;;;;;12415205;28;19929;-81
2022/10/09 20:04:46;;;;;;;;;;;11.30;99.90;;;;;;12408076;28;19941;-80
2022/10/09 20:10:48;;;;;;;;;;;11.40;99.90;;;;;;12412139;28;19945;-81
2022/10/09 20:16:52;;;;;;;;;;;11.40;99.90;;;;;;12410651;28;19929;-80
2022/10/09 20:22:54;;;;;;;;;;;11.40;99.90;;;;;;12399489;28;20305;-80
2022/10/09 20:28:55;;;;;;;;;;;11.40;99.90;;;;;;12420587;28;19932;-81
2022/10/09 20:35:01;;;;;;;;;;;11.40;99.90;;;;;;12412187;28;19926;-80
2022/10/09 20:41:05;;;;;;;;;;;11.50;99.90;;;;;;12425371;28;19926;-81
2022/10/09 20:47:07;;;;;;;;;;;11.30;99.90;;;;;;12405219;28;19926;-80
2022/10/09 20:53:11;;;;;;;;;;;11.30;99.90;;;;;;12407399;28;19932;-80
2022/10/09 20:59:13;;;;;;;;;;;11.30;99.90;;;;;;12402527;28;19984;-81
2022/10/09 21:05:15;;;;;;;;;;;11.30;99.90;;;;;;12420495;28;20713;-80
2022/10/09 21:11:18;;;;;;;;;;;11.20;99.90;;;;;;12409591;28;20274;-81
2022/10/09 21:17:19;;;;;;;;;;;11.20;99.90;;;;;;12395907;28;19968;-80
2022/10/09 21:23:22;;;;;;;;;;;11.10;99.90;;;;;;12391356;28;20274;-81
2022/10/09 21:29:25;;;;;;;;;;;11.10;99.90;;;;;;12416477;28;19948;-81
2022/10/09 21:35:27;;;;;;;;;;;11.20;99.90;;;;;;12413425;28;19975;-80
2022/10/09 21:41:29;;;;;;;;;;;11.20;99.90;;;;;;12401672;28;19926;-80
2022/10/09 21:47:30;;;;;;;;;;;11.30;99.90;;;;;;12395952;28;19929;-80
2022/10/09 21:53:32;;;;;;;;;;;11.30;99.90;;;;;;12396631;28;19964;-80
2022/10/09 21:59:34;;;;;;;;;;;11.20;99.90;;;;;;12395674;28;20067;-81
2022/10/09 22:05:38;;;;;;;;;;;11.20;99.90;;;;;;12402954;28;19925;-81
2022/10/09 22:11:39;;;;;;;;;;;11.10;99.90;;;;;;12408956;28;19926;-80
2022/10/09 22:17:41;;;;;;;;;;;11.10;99.90;;;;;;12406975;28;19930;-80
2022/10/09 22:23:43;;;;;;;;;;;11.20;99.90;;;;;;12414740;28;19930;-80
2022/10/09 22:29:45;;;;;;;;;;;11.30;99.90;;;;;;12429643;28;19929;-80
2022/10/09 22:35:46;;;;;;;;;;;11.30;99.90;;;;;;12412298;28;19929;-80
2022/10/09 22:41:48;;;;;;;;;;;11.30;99.90;;;;;;12417458;28;19929;-80
2022/10/09 22:47:50;;;;;;;;;;;11.40;99.90;;;;;;12404734;28;19930;-81
2022/10/09 22:53:51;;;;;;;;;;;11.20;99.90;;;;;;12408541;28;19926;-79
2022/10/09 22:59:53;;;;;;;;;;;11.20;99.90;;;;;;12405074;28;19929;-79
2022/10/09 23:06:03;;;;;;;;;;;11.30;99.90;;;;;;12419246;28;19926;-81
2022/10/09 23:12:05;;;;;;;;;;;11.30;99.90;;;;;;12399749;28;19930;-80
2022/10/09 23:18:07;;;;;;;;;;;11.20;99.90;;;;;;12383728;28;19930;-80
2022/10/09 23:24:14;;;;;;;;;;;11.20;99.90;;;;;;12403219;28;20282;-79
2022/10/09 23:30:15;;;;;;;;;;;11.20;99.90;;;;;;12397487;28;19925;-80
2022/10/09 23:36:21;;;;;;;;;;;11.20;99.90;;;;;;12416560;28;19926;-79
2022/10/09 23:42:22;;;;;;;;;;;11.30;99.90;;;;;;12415220;28;19933;-80
2022/10/09 23:48:24;;;;;;;;;;;11.30;99.90;;;;;;12413426;28;20392;-79
2022/10/09 23:54:26;;;;;;;;;;;11.30;99.90;;;;;;12413879;28;19926;-79
